New Holland, Illinois
Current Conditions -  °F | °C
As of 2:35 PM on Friday 21 Nov 2014 (Local Time) from KAAA Reporting Station
Clear Clear  
Wind Chill: 30°   Ceiling: Unl
Heat Index: 38°   Visibility: 10mi
Dew Point: 11°   Wind: 14mph
Humidity: 32%   Direction: 150°SSE
Pressure: 30.35"   Gusts: 17mph
Location:  40.18°N, 89.58°W
Report Text: KAAA 212035Z AUTO 15012G15KT 10SM CLR 04/M12 A3035 RMK AO2 T00351117
Loading
Personal Weather Stations






























Interactive Weather Map New forecast layout! Learn more

10-Day Weather Forecast

Advertisements
Track Severe Weather on mobile